Yuanling, China
Current Conditions -  °F | °C
As of 2:00 AM on Saturday 29 Nov 2014 (Local Time) from ZGHA Reporting Station
Haze Haze  
Wind Chill: 52°   Ceiling: 300
Heat Index: 52°   Visibility: 2.1mi
Dew Point: 50°   Wind: 4mph
Humidity: 94%   Direction: 300°WNW
Pressure: 30"   Gusts: NA
Location:  28.47°N, 110.4°E
Report Text: ZGHA 281800Z 30002MPS 240V330 3500 BR SCT002 BKN003OVC05011/10 Q1016 NOSIG
Loading
Personal Weather Stations






























Interactive Weather Map New forecast layout! Learn more

10-Day Weather Forecast

Advertisements
Track Severe Weather on mobile